NK2077 / N662NK 7700 Squawk Report (1st of October, 2022)

Aircraft A321 Reg No. N662NK Age 6 years old
Model A321 Jet engines 2 First flight 08-12-15
Registered 18-12-15 Rollout 12-15 Delivered 19-12-15
Construction No. 6897 Line No. N/A Series 231(SL)
ADSHEX A8BCDD Airline name Spirit Airlines Owner N/A
Airfield based Fort Lauderdale-International~FL~N First tracked N/A

Flight history for N662NK

Route Flight No Date Playback
Fort Lauderdale Hollywood Intl (FLL) - Cancun Intl (CUN) NK1522 2022-12-04 17:17:00
La Guardia (LGA) - Fort Lauderdale Hollywood Intl (FLL) NK171 2022-12-04 14:19:00
Fort Lauderdale Hollywood Intl (FLL) - La Guardia (LGA) NK2020 2022-12-04 03:54:00
Punta Cana (PUJ) - Fort Lauderdale Hollywood Intl (FLL) NK784 2022-12-03 23:25:00
Fort Lauderdale Hollywood Intl (FLL) - Punta Cana (PUJ) NK783 2022-12-03 19:16:00
Dallas Fort Worth (DFW) - Fort Lauderdale Hollywood Intl (FLL) NK1967 2022-12-03 14:03:00
Orlando Intl (MCO) - Dallas Fort Worth (DFW) NK1015 2022-12-03 05:13:00
Newark Liberty Intl (EWR) - Orlando Intl (MCO) NK1908 2022-12-03 01:10:00
Miami Intl (MIA) - Newark Liberty Intl (EWR) NK69 2022-12-02 21:18:00
La Guardia (LGA) - Miami Intl (MIA) NK3154 2022-12-02 16:42:00
Orlando Intl (MCO) - La Guardia (LGA) NK316 2022-12-02 12:37:00
Baltimore Washington Intl (BWI) - Orlando Intl (MCO) NK2077 2022-12-02 02:12:00
Hartsfield Jackson Atlanta Intl (ATL) - Baltimore Washington Intl (BWI) NK1435 2022-12-01 22:48:00
McCarran Intl (LAS) - Hartsfield Jackson Atlanta Intl (ATL) NK806 2022-12-01 19:55:00
Hartsfield Jackson Atlanta Intl (ATL) - McCarran Intl (LAS) NK805 2022-12-01 15:17:00
Dallas Fort Worth (DFW) - Hartsfield Jackson Atlanta Intl (ATL) NK1025 2022-12-01 02:48:00
Orlando Intl (MCO) - Dallas Fort Worth (DFW) NK1015 2022-12-01 00:20:00
Chicago Ohare Intl (ORD) - Orlando Intl (MCO) NK929 2022-11-30 19:33:00
Fort Lauderdale Hollywood Intl (FLL) - Chicago Ohare Intl (ORD) NK3 2022-11-30 15:21:00
Juan Santamaria Intl (SJO) - Fort Lauderdale Hollywood Intl (FLL) NK1756 2022-11-30 10:47:00
Time Lat Lon Altitude Heading Speed Vertical Rate
2022-10-01 00:53:15 GMT 39.177860 -76.665466 0 305 8 0
2022-10-01 00:53:14 GMT 39.177830 -76.665428 0 305 8 0
2022-10-01 00:53:13 GMT 39.177811 -76.665390 0 305 8 0
2022-10-01 00:53:12 GMT 39.177750 -76.665321 0 303 8 0
2022-10-01 00:53:10 GMT 39.177719 -76.665283 0 301 8 0
2022-10-01 00:53:09 GMT 39.177700 -76.665237 0 300 8 0
2022-10-01 00:53:07 GMT 39.177650 -76.665161 0 298 8 0
2022-10-01 00:53:06 GMT 39.177620 -76.665123 0 297 8 0
2022-10-01 00:53:04 GMT 39.177582 -76.665047 0 296 7 0
2022-10-01 00:53:03 GMT 39.177559 -76.665001 0 296 7 0
2022-10-01 00:53:02 GMT 39.177528 -76.664917 0 295 7 0
2022-10-01 00:53:00 GMT 39.177521 -76.664902 0 294 8 0
2022-10-01 00:52:59 GMT 39.177502 -76.664841 0 294 9 0
2022-10-01 00:52:58 GMT 39.177479 -76.664803 0 294 11 0
2022-10-01 00:52:56 GMT 39.177471 -76.664749 0 295 11 0
2022-10-01 00:52:55 GMT 39.177422 -76.664627 0 289 11 0
2022-10-01 00:52:53 GMT 39.177429 -76.664543 0 308 8 0
2022-10-01 00:52:52 GMT 39.177410 -76.664497 0 312 9 0
2022-10-01 00:52:51 GMT 39.177341 -76.664413 0 297 5 0
2022-10-01 00:52:49 GMT 39.177319 -76.664421 0 292 11 0
2022-10-01 00:52:48 GMT 39.177299 -76.664307 0 286 11 0
2022-10-01 00:52:46 GMT 39.177250 -76.664261 0 272 11 0
2022-10-01 00:52:44 GMT 39.177238 -76.664139 0 248 10 0
2022-10-01 00:52:43 GMT 39.177231 -76.664078 0 231 12 0
2022-10-01 00:52:42 GMT 39.177280 -76.664017 0 239 10 0
2022-10-01 00:52:41 GMT 39.177292 -76.663933 0 220 9 0
2022-10-01 00:52:39 GMT 39.177330 -76.663879 0 217 12 0
2022-10-01 00:52:38 GMT 39.177380 -76.663841 0 216 12 0
2022-10-01 00:52:37 GMT 39.177448 -76.663750 0 205 11 0
2022-10-01 00:52:35 GMT 39.177490 -76.663719 0 205 12 0
2022-10-01 00:52:33 GMT 39.177608 -76.663673 0 226 10 0
2022-10-01 00:52:32 GMT 39.177662 -76.663651 0 235 10 0
2022-10-01 00:52:31 GMT 39.177670 -76.663620 0 233 12 0
2022-10-01 00:52:30 GMT 39.177700 -76.663551 0 233 11 0
2022-10-01 00:52:28 GMT 39.177769 -76.663467 0 257 13 0
2022-10-01 00:52:27 GMT 39.177799 -76.663383 0 265 10 0
2022-10-01 00:52:26 GMT 39.177811 -76.663269 0 270 12 0
2022-10-01 00:52:24 GMT 39.177841 -76.663231 0 285 13 0
2022-10-01 00:52:23 GMT 39.177830 -76.663132 0 296 13 0
2022-10-01 00:52:22 GMT 39.177780 -76.663002 0 291 10 0
2022-10-01 00:52:20 GMT 39.177761 -76.662941 0 302 6 0
2022-10-01 00:52:19 GMT 39.177769 -76.662857 0 325 12 0
2022-10-01 00:52:17 GMT 39.177731 -76.662811 0 332 11 0
2022-10-01 00:52:16 GMT 39.177689 -76.662750 0 337 11 0
2022-10-01 00:52:14 GMT 39.177589 -76.662712 0 340 9 0
2022-10-01 00:52:13 GMT 39.177521 -76.662659 0 359 6 0
2022-10-01 00:52:11 GMT 39.177521 -76.662682 0 356 13 0
2022-10-01 00:52:10 GMT 39.177422 -76.662613 0 26 8 0
2022-10-01 00:52:09 GMT 39.177399 -76.662598 0 24 11 0
2022-10-01 00:52:07 GMT 39.177311 -76.662621 0 31 11 0
2022-10-01 00:52:05 GMT 39.177212 -76.662659 0 44 10 0
2022-10-01 00:52:04 GMT 39.177158 -76.662697 0 51 7 0
2022-10-01 00:52:03 GMT 39.177139 -76.662743 0 45 15 0
2022-10-01 00:52:01 GMT 39.177071 -76.662827 0 38 8 0
2022-10-01 00:52:00 GMT 39.177059 -76.662842 0 34 11 0
2022-10-01 00:51:58 GMT 39.176998 -76.662933 0 29 11 0
2022-10-01 00:51:57 GMT 39.176960 -76.662910 0 40 15 0
2022-10-01 00:51:56 GMT 39.176861 -76.663040 0 29 12 0
2022-10-01 00:51:54 GMT 39.176800 -76.663078 0 33 9 0
2022-10-01 00:51:53 GMT 39.176762 -76.663139 0 21 16 0
2022-10-01 00:51:51 GMT 39.176659 -76.663200 0 19 9 0
2022-10-01 00:51:50 GMT 39.176601 -76.663193 0 39 9 0
2022-10-01 00:51:49 GMT 39.176552 -76.663269 0 30 12 0
2022-10-01 00:51:47 GMT 39.176498 -76.663307 0 30 11 0
2022-10-01 00:51:46 GMT 39.176449 -76.663330 0 37 11 0
2022-10-01 00:51:44 GMT 39.176369 -76.663399 0 34 13 0
2022-10-01 00:51:43 GMT 39.176311 -76.663429 0 37 12 0
2022-10-01 00:51:42 GMT 39.176289 -76.663490 0 29 14 0
2022-10-01 00:51:41 GMT 39.176159 -76.663559 0 35 13 0
2022-10-01 00:51:39 GMT 39.176109 -76.663612 0 34 11 0
2022-10-01 00:51:38 GMT 39.176079 -76.663658 0 28 13 0
2022-10-01 00:51:36 GMT 39.175980 -76.663742 0 28 12 0
2022-10-01 00:51:35 GMT 39.175919 -76.663773 0 36 11 0
2022-10-01 00:51:34 GMT 39.175819 -76.663849 0 51 8 0
2022-10-01 00:51:32 GMT 39.175819 -76.663902 0 38 9 0
2022-10-01 00:51:31 GMT 39.175781 -76.663940 0 40 9 0
2022-10-01 00:51:30 GMT 39.175720 -76.664009 0 34 13 0
2022-10-01 00:51:28 GMT 39.175678 -76.664062 0 25 13 0
2022-10-01 00:51:26 GMT 39.175571 -76.664108 0 21 13 0
2022-10-01 00:51:25 GMT 39.175491 -76.664124 0 39 12 0
2022-10-01 00:51:23 GMT 39.175400 -76.664223 0 32 11 0
2022-10-01 00:51:22 GMT 39.175388 -76.664299 0 9 12 0
2022-10-01 00:51:21 GMT 39.175308 -76.664307 0 22 7 0
2022-10-01 00:51:20 GMT 39.175251 -76.664337 0 34 9 0
2022-10-01 00:51:18 GMT 39.175179 -76.664360 0 51 8 0
2022-10-01 00:51:17 GMT 39.175140 -76.664383 0 64 8 0
2022-10-01 00:51:15 GMT 39.175152 -76.664497 0 41 10 0
2022-10-01 00:51:14 GMT 39.175110 -76.664574 0 6 13 0
2022-10-01 00:51:12 GMT 39.175011 -76.664597 0 7 9 0
2022-10-01 00:51:11 GMT 39.174969 -76.664581 0 29 9 0
2022-10-01 00:51:10 GMT 39.174931 -76.664589 0 39 10 0
2022-10-01 00:51:08 GMT 39.174839 -76.664688 0 47 4 0
2022-10-01 00:51:07 GMT 39.174820 -76.664680 0 32 4 0
2022-10-01 00:51:06 GMT 39.174782 -76.664703 0 39 7 0
2022-10-01 00:51:04 GMT 39.174759 -76.664749 0 39 5 0
2022-10-01 00:51:03 GMT 39.174759 -76.664757 0 35 9 0
2022-10-01 00:51:01 GMT 39.174702 -76.664803 0 36 8 0
2022-10-01 00:51:00 GMT 39.174671 -76.664841 0 43 9 0
2022-10-01 00:50:59 GMT 39.174622 -76.664879 0 54 6 0
2022-10-01 00:50:58 GMT 39.174591 -76.664948 0 48 4 0
2022-10-01 00:50:56 GMT 39.174568 -76.664948 0 58 5 0
2022-10-01 00:50:54 GMT 39.174511 -76.665001 0 75 8 0
2022-10-01 00:50:53 GMT 39.174511 -76.665070 0 59 3 0
2022-10-01 00:50:52 GMT 39.174519 -76.665077 0 53 7 0
2022-10-01 00:50:50 GMT 39.174469 -76.665131 0 74 4 0
2022-10-01 00:50:49 GMT 39.174450 -76.665169 0 87 5 0
2022-10-01 00:50:47 GMT 39.174438 -76.665199 0 98 7 0
2022-10-01 00:50:45 GMT 39.174461 -76.665298 0 118 7 0
2022-10-01 00:50:44 GMT 39.174461 -76.665359 0 119 3 0
2022-10-01 00:50:43 GMT 39.174438 -76.665382 0 96 9 0
2022-10-01 00:50:41 GMT 39.174469 -76.665428 0 84 9 0
2022-10-01 00:50:40 GMT 39.174469 -76.665459 0 72 10 0
2022-10-01 00:50:39 GMT 39.174461 -76.665573 0 66 11 0
2022-10-01 00:50:37 GMT 39.174431 -76.665642 0 34 9 0
2022-10-01 00:50:36 GMT 39.174431 -76.665649 0 50 11 0
2022-10-01 00:50:35 GMT 39.174412 -76.665756 0 33 13 0
2022-10-01 00:50:33 GMT 39.174358 -76.665817 0 27 14 0
2022-10-01 00:50:32 GMT 39.174278 -76.665863 0 24 9 0
2022-10-01 00:50:31 GMT 39.174229 -76.665939 0 351 15 0
2022-10-01 00:50:29 GMT 39.174198 -76.665901 0 359 17 0
2022-10-01 00:50:28 GMT 39.174091 -76.665909 0 10 13 0
2022-10-01 00:50:26 GMT 39.173988 -76.665932 0 14 14 0
2022-10-01 00:50:25 GMT 39.173901 -76.665916 0 28 11 0
2022-10-01 00:50:23 GMT 39.173820 -76.665939 0 31 12 0
2022-10-01 00:50:22 GMT 39.173752 -76.665977 0 38 9 0
2022-10-01 00:50:21 GMT 39.173679 -76.666023 0 44 14 0
2022-10-01 00:50:19 GMT 39.173649 -76.666077 0 43 14 0
2022-10-01 00:50:18 GMT 39.173592 -76.666199 0 45 10 0
2022-10-01 00:50:16 GMT 39.173481 -76.666267 0 96 10 0
2022-10-01 00:50:15 GMT 39.173531 -76.666313 0 71 13 0
2022-10-01 00:50:14 GMT 39.173458 -76.666473 0 88 9 0
2022-10-01 00:50:12 GMT 39.173481 -76.666527 0 91 10 0
2022-10-01 00:50:11 GMT 39.173470 -76.666634 0 104 8 0
2022-10-01 00:50:09 GMT 39.173458 -76.666740 0 88 10 0
2022-10-01 00:50:08 GMT 39.173500 -76.666901 0 82 13 0
2022-10-01 00:50:06 GMT 39.173500 -76.666939 0 85 18 0
2022-10-01 00:50:05 GMT 39.173450 -76.667030 0 95 23 0
2022-10-01 00:50:04 GMT 39.173481 -76.667320 0 95 28 0
2022-10-01 00:50:02 GMT 39.173481 -76.667458 0 96 34 0
2022-10-01 00:50:01 GMT 39.173512 -76.667648 0 93 38 0
2022-10-01 00:50:00 GMT 39.173519 -76.667877 0 95 42 0
2022-10-01 00:49:59 GMT 39.173519 -76.668404 0 96 53 0
2022-10-01 00:49:57 GMT 39.173580 -76.668694 0 92 58 0
2022-10-01 00:49:56 GMT 39.173569 -76.669029 0 94 62 0
2022-10-01 00:49:55 GMT 39.173630 -76.669746 0 93 75 32
2022-10-01 00:49:53 GMT 39.173660 -76.670174 0 93 81 32
2022-10-01 00:49:52 GMT 39.173679 -76.670639 0 92 84 32
2022-10-01 00:49:51 GMT 39.173698 -76.671623 0 94 99 32
2022-10-01 00:49:49 GMT 39.173752 -76.672150 0 93 106 0
2022-10-01 00:49:48 GMT 39.173809 -76.673393 0 93 113 0
2022-10-01 00:49:47 GMT 39.173859 -76.674019 0 93 118 0
2022-10-01 00:49:45 GMT 39.173840 -76.674728 0 95 118 64
2022-10-01 00:49:44 GMT 39.173901 -76.675392 0 95 122 64
2022-10-01 00:49:42 GMT 39.174030 -76.676781 0 93 132 -32
2022-10-01 00:49:41 GMT 39.174061 -76.677521 -25 93 135 32
2022-10-01 00:49:40 GMT 39.174141 -76.679108 -25 93 138 32
2022-10-01 00:49:38 GMT 39.174160 -76.679939 -25 95 134 32
2022-10-01 00:49:36 GMT 39.174278 -76.681541 25 94 140 32
2022-10-01 00:49:35 GMT 39.174339 -76.682373 25 93 141 32
2022-10-01 00:49:34 GMT 39.174381 -76.683182 25 92 145 32
2022-10-01 00:49:32 GMT 39.174419 -76.684891 25 92 147 -384
2022-10-01 00:49:31 GMT 39.174461 -76.686653 25 95 144 -384
2022-10-01 00:49:29 GMT 39.174541 -76.687538 25 94 140 -384
2022-10-01 00:49:28 GMT 39.174610 -76.688278 50 93 149 -384
2022-10-01 00:49:26 GMT 39.174648 -76.690140 100 96 132 -384
2022-10-01 00:49:24 GMT 39.174801 -76.691498 100 93 150 -384
2022-10-01 00:49:23 GMT 39.174850 -76.692451 125 94 142 -384
2022-10-01 00:49:22 GMT 39.174881 -76.693283 225 95 145 -384
2022-10-01 00:49:21 GMT 39.174961 -76.694160 225 93 137 -384
2022-10-01 00:49:19 GMT 39.175018 -76.695892 225 96 126 -384
2022-10-01 00:49:18 GMT 39.175079 -76.696281 225 94 157 192
2022-10-01 00:49:17 GMT 39.175201 -76.698242 225 93 146 -736
2022-10-01 00:49:15 GMT 39.175320 -76.699127 225 89 145 -736
2022-10-01 00:49:14 GMT 39.175301 -76.700027 1,850 92 140 -736
2022-10-01 00:49:12 GMT 39.175388 -76.701683 1,850 93 144 -736
2022-10-01 00:49:11 GMT 39.175449 -76.702591 1,850 93 140 -736
2022-10-01 00:49:09 GMT 39.175529 -76.704277 1,850 94 139 -736
2022-10-01 00:49:08 GMT 39.175560 -76.705116 1,850 94 139 -736
2022-10-01 00:49:06 GMT 39.175640 -76.706749 1,850 94 140 -736
2022-10-01 00:49:05 GMT 39.175709 -76.707581 1,850 94 140 -736
2022-10-01 00:49:03 GMT 39.175800 -76.709244 1,850 94 139 -736
2022-10-01 00:49:02 GMT 39.175838 -76.710052 1,850 95 140 -736
2022-10-01 00:49:01 GMT 39.175949 -76.711670 1,850 94 142 -736
2022-10-01 00:48:59 GMT 39.176048 -76.712517 1,850 93 142 -736
2022-10-01 00:48:58 GMT 39.176102 -76.713379 1,850 93 141 -736
2022-10-01 00:48:56 GMT 39.176170 -76.715111 1,850 94 137 -800
2022-10-01 00:48:55 GMT 39.176189 -76.715897 1,850 94 139 -800
2022-10-01 00:48:54 GMT 39.176270 -76.716713 1,850 93 139 -800
2022-10-01 00:48:52 GMT 39.176361 -76.718384 1,850 93 139 -800
2022-10-01 00:48:50 GMT 39.176430 -76.720009 1,850 94 141 -800
2022-10-01 00:48:49 GMT 39.176479 -76.720863 1,850 94 140 -800
2022-10-01 00:48:48 GMT 39.176498 -76.721672 1,850 94 141 -800
2022-10-01 00:48:47 GMT 39.176559 -76.722504 1,850 94 142 -800
2022-10-01 00:48:45 GMT 39.176682 -76.724220 1,850 94 139 -800
2022-10-01 00:48:44 GMT 39.176720 -76.725037 1,850 95 140 -800
2022-10-01 00:48:42 GMT 39.176868 -76.726700 1,850 93 140 -800
2022-10-01 00:48:41 GMT 39.176910 -76.727531 1,850 93 140 -800
2022-10-01 00:48:40 GMT 39.176971 -76.729172 1,850 94 142 -800
2022-10-01 00:48:38 GMT 39.177021 -76.730042 1,850 95 141 -800
2022-10-01 00:48:37 GMT 39.177078 -76.730858 1,850 95 141 -800
2022-10-01 00:48:36 GMT 39.177219 -76.732552 1,850 94 140 -800
2022-10-01 00:48:34 GMT 39.177269 -76.733330 1,850 94 143 -800
2022-10-01 00:48:32 GMT 39.177368 -76.735039 1,850 93 142 -800
2022-10-01 00:48:31 GMT 39.177410 -76.735901 1,850 93 141 -800
2022-10-01 00:48:30 GMT 39.177502 -76.737572 1,850 93 141 -800
2022-10-01 00:48:28 GMT 39.177551 -76.738388 1,850 93 142 -800
2022-10-01 00:48:27 GMT 39.177601 -76.739227 1,850 93 142 -800
2022-10-01 00:48:26 GMT 39.177670 -76.740921 1,850 93 143 -800
2022-10-01 00:48:24 GMT 39.177689 -76.741783 1,850 93 142 -800
2022-10-01 00:48:23 GMT 39.177769 -76.743469 1,850 94 143 -800
2022-10-01 00:48:21 GMT 39.177799 -76.744331 1,850 94 141 -800
2022-10-01 00:48:20 GMT 39.177849 -76.745178 1,850 94 141 -800
2022-10-01 00:48:18 GMT 39.177952 -76.746857 1,850 95 141 -800
2022-10-01 00:48:17 GMT 39.178001 -76.747688 1,850 95 142 -800
2022-10-01 00:48:15 GMT 39.178131 -76.749367 1,850 94 142 -800
2022-10-01 00:48:14 GMT 39.178188 -76.750229 1,850 94 140 -800
2022-10-01 00:48:13 GMT 39.178242 -76.751083 1,850 94 140 -800
2022-10-01 00:48:12 GMT 39.178341 -76.752724 1,850 94 142 -800
2022-10-01 00:48:10 GMT 39.178410 -76.753578 1,850 94 140 -800
2022-10-01 00:48:09 GMT 39.178471 -76.754440 1,850 93 138 -800
2022-10-01 00:48:08 GMT 39.178551 -76.756058 1,850 93 141 -800
2022-10-01 00:48:06 GMT 39.178581 -76.756912 1,850 94 139 -800
2022-10-01 00:48:04 GMT 39.178692 -76.758537 1,850 93 142 -800
2022-10-01 00:48:03 GMT 39.178761 -76.759399 1,850 92 141 -800
2022-10-01 00:48:02 GMT 39.178768 -76.760246 1,850 92 140 -800
2022-10-01 00:48:00 GMT 39.178822 -76.761917 1,850 92 139 -800
2022-10-01 00:47:59 GMT 39.178848 -76.762733 1,850 92 140 -800
2022-10-01 00:47:57 GMT 39.178928 -76.764381 1,850 92 142 -800
2022-10-01 00:47:56 GMT 39.178951 -76.765198 1,850 92 143 -224
2022-10-01 00:47:55 GMT 39.178959 -76.766068 1,850 93 142 -224
2022-10-01 00:47:54 GMT 39.179008 -76.767769 1,850 94 141 -224
2022-10-01 00:47:53 GMT 39.179062 -76.768631 1,850 95 139 -224
2022-10-01 00:47:51 GMT 39.179119 -76.769463 1,850 94 139 -224
2022-10-01 00:47:49 GMT 39.179211 -76.771072 1,850 95 142 -224
2022-10-01 00:47:48 GMT 39.179272 -76.771950 1,850 95 139 -224
2022-10-01 00:47:47 GMT 39.179329 -76.772774 1,850 95 139 -224
2022-10-01 00:47:45 GMT 39.179470 -76.774406 1,850 95 140 -224
2022-10-01 00:47:44 GMT 39.179531 -76.775192 1,850 94 143 -224
2022-10-01 00:47:42 GMT 39.179661 -76.776901 1,850 94 141 -224
2022-10-01 00:47:41 GMT 39.179710 -76.777733 1,850 94 141 -224
2022-10-01 00:47:40 GMT 39.179810 -76.779427 1,850 93 140 -224
2022-10-01 00:47:38 GMT 39.179878 -76.780243 1,850 92 142 -224
2022-10-01 00:47:37 GMT 39.179920 -76.781082 1,850 92 142 -224
2022-10-01 00:47:35 GMT 39.179958 -76.782738 1,850 92 144 -224
2022-10-01 00:47:34 GMT 39.179989 -76.783600 1,850 92 143 -224
2022-10-01 00:47:32 GMT 39.180012 -76.785271 1,850 93 145 -224
2022-10-01 00:47:31 GMT 39.180012 -76.786163 1,850 94 144 -224
2022-10-01 00:47:30 GMT 39.180092 -76.787872 1,850 95 142 -224
2022-10-01 00:47:28 GMT 39.180130 -76.788727 1,850 95 142 -224
2022-10-01 00:47:26 GMT 39.180222 -76.790428 1,850 95 141 -224
2022-10-01 00:47:25 GMT 39.180279 -76.791260 1,850 94 142 0
2022-10-01 00:47:24 GMT 39.180340 -76.792122 1,850 93 141 0
2022-10-01 00:47:22 GMT 39.180439 -76.793793 1,850 90 142 -32
2022-10-01 00:47:21 GMT 39.180489 -76.794594 1,850 89 145 -32
2022-10-01 00:47:20 GMT 39.180489 -76.796288 1,850 87 147 -32
2022-10-01 00:47:18 GMT 39.180470 -76.797157 1,850 86 148 -32
2022-10-01 00:47:17 GMT 39.180431 -76.798019 1,850 85 149 -32
2022-10-01 00:47:16 GMT 39.180370 -76.798927 1,850 84 148 -32
2022-10-01 00:47:14 GMT 39.180248 -76.800682 1,850 81 148 -32
2022-10-01 00:47:13 GMT 39.180168 -76.801537 1,850 80 150 -32
2022-10-01 00:47:12 GMT 39.180080 -76.802399 1,850 78 152 -32
2022-10-01 00:47:10 GMT 39.179852 -76.804176 1,850 75 152 -32
2022-10-01 00:47:09 GMT 39.179539 -76.805939 1,850 73 152 -32
2022-10-01 00:47:07 GMT 39.179379 -76.806847 1,850 72 150 -32
2022-10-01 00:47:06 GMT 39.179180 -76.807709 1,850 72 150 -32
2022-10-01 00:47:04 GMT 39.178761 -76.809418 1,850 72 150 -32
2022-10-01 00:47:03 GMT 39.178581 -76.810257 1,850 71 151 -32
2022-10-01 00:47:02 GMT 39.178150 -76.811974 1,850 71 151 -32
2022-10-01 00:47:00 GMT 39.177891 -76.812828 1,850 71 150 -32
2022-10-01 00:46:59 GMT 39.177441 -76.814529 1,850 71 148 -320
2022-10-01 00:46:55 GMT 39.176834 -76.816887 1,850 71 148 -256
2022-10-01 00:46:52 GMT 39.175095 -76.823631 1,875 71 148 -192
2022-10-01 00:46:48 GMT 39.175095 -76.823631 1,875 71 148 0
2022-10-01 00:46:44 GMT 39.174225 -76.827034 1,875 71 148 0
2022-10-01 00:46:41 GMT 39.173988 -76.827942 1,875 71 148 0
2022-10-01 00:46:34 GMT 39.172394 -76.834320 1,875 73 148 -64
2022-10-01 00:46:31 GMT 39.171616 -76.838020 1,875 76 149 0
2022-10-01 00:46:28 GMT 39.171341 -76.839394 1,875 77 149 0
2022-10-01 00:46:27 GMT 39.171146 -76.840637 1,875 80 150 0
2022-10-01 00:46:26 GMT 39.170746 -76.843452 1,875 79 151 0
2022-10-01 00:46:24 GMT 39.170544 -76.844849 1,875 79 151 0
2022-10-01 00:46:22 GMT 39.170544 -76.844849 1,875 76 150 128
2022-10-01 00:46:20 GMT 39.170261 -76.846680 1,875 76 150 128
2022-10-01 00:46:17 GMT 39.169876 -76.848770 1,875 71 151 128
2022-10-01 00:46:15 GMT 39.169239 -76.851196 1,875 66 150 0
2022-10-01 00:46:12 GMT 39.168640 -76.852768 1,875 60 150 64
2022-10-01 00:46:11 GMT 39.168308 -76.853638 1,875 60 150 64
2022-10-01 00:46:10 GMT 39.165802 -76.857368 1,875 50 151 0
2022-10-01 00:46:06 GMT 39.165802 -76.857368 1,875 37 153 0
2022-10-01 00:46:03 GMT 39.164307 -76.858765 1,875 30 154 0
2022-10-01 00:46:02 GMT 39.163284 -76.859459 1,875 21 156 0
2022-10-01 00:46:00 GMT 39.161839 -76.860229 1,875 18 157 64
2022-10-01 00:45:58 GMT 39.160812 -76.860710 1,875 12 160 128
2022-10-01 00:45:56 GMT 39.157516 -76.861427 1,875 359 166 -64
2022-10-01 00:45:54 GMT 39.157516 -76.861427 1,875 359 166 -64
2022-10-01 00:45:53 GMT 39.156483 -76.861450 1,875 357 167 -64
2022-10-01 00:45:50 GMT 39.154900 -76.861328 1,875 354 167 -64
2022-10-01 00:45:47 GMT 39.151749 -76.860710 1,875 350 169 -64
2022-10-01 00:45:46 GMT 39.151035 -76.860535 1,875 350 169 -64
2022-10-01 00:45:44 GMT 39.149551 -76.860168 1,875 347 170 128
2022-10-01 00:45:40 GMT 39.147079 -76.859512 1,875 347 170 128
2022-10-01 00:45:37 GMT 39.144058 -76.858620 1,875 347 170 128
2022-10-01 00:45:36 GMT 39.143326 -76.858383 1,875 346 171 64
2022-10-01 00:45:35 GMT 39.142593 -76.858139 1,875 343 173 0
2022-10-01 00:45:33 GMT 39.141075 -76.857605 1,875 343 173 0
2022-10-01 00:45:30 GMT 39.139297 -76.856888 1,875 342 173 0
2022-10-01 00:45:28 GMT 39.137817 -76.856262 1,875 341 174 128
2022-10-01 00:45:26 GMT 39.136513 -76.855652 1,875 341 174 128
2022-10-01 00:45:23 GMT 39.133255 -76.854126 1,875 341 174 0
2022-10-01 00:45:19 GMT 39.131020 -76.853088 1,875 340 173 -64
2022-10-01 00:45:18 GMT 39.130322 -76.852722 1,875 340 173 0
2022-10-01 00:45:17 GMT 39.129436 -76.852356 1,875 340 173 0
2022-10-01 00:45:15 GMT 39.127808 -76.851578 1,875 340 174 -64
2022-10-01 00:45:14 GMT 39.125481 -76.850464 1,875 340 174 0
2022-10-01 00:45:12 GMT 39.125481 -76.850464 1,875 340 174 0
2022-10-01 00:45:11 GMT 39.123756 -76.849670 1,875 340 174 0
2022-10-01 00:45:08 GMT 39.122314 -76.848999 1,875 340 175 0
2022-10-01 00:45:05 GMT 39.120220 -76.847961 1,875 340 175 0
2022-10-01 00:45:04 GMT 39.119431 -76.847633 1,875 340 176 64
2022-10-01 00:45:02 GMT 39.118195 -76.847038 1,875 340 176 0
2022-10-01 00:45:01 GMT 39.117474 -76.846680 1,875 340 176 0
2022-10-01 00:44:59 GMT 39.115540 -76.845779 1,875 340 179 -128
2022-10-01 00:44:56 GMT 39.110023 -76.843201 1,875 341 179 -128
2022-10-01 00:44:52 GMT 39.110023 -76.843201 1,875 346 179 -128
2022-10-01 00:44:49 GMT 39.107231 -76.842102 1,900 348 180 64
2022-10-01 00:44:45 GMT 39.103500 -76.840828 1,900 348 180 64
2022-10-01 00:44:42 GMT 39.101944 -76.840408 1,900 348 180 64
2022-10-01 00:44:39 GMT 39.099270 -76.839661 1,875 348 188 64
2022-10-01 00:44:33 GMT 39.093407 -76.837952 1,875 347 197 -128
2022-10-01 00:44:29 GMT 39.090660 -76.837097 1,900 347 197 -128
2022-10-01 00:44:28 GMT 39.089775 -76.836792 1,900 346 200 -128
2022-10-01 00:44:25 GMT 39.086517 -76.835693 1,900 345 204 -192
2022-10-01 00:44:23 GMT 39.085144 -76.835152 1,900 336 216 -448
2022-10-01 00:44:17 GMT 39.080429 -76.833008 1,925 336 216 -448
2022-10-01 00:44:16 GMT 39.079422 -76.832405 1,950 325 226 -768
2022-10-01 00:44:12 GMT 39.075714 -76.829590 2,000 323 229 -832
2022-10-01 00:44:11 GMT 39.074924 -76.828796 2,000 323 229 -896
2022-10-01 00:44:06 GMT 39.070953 -76.824165 2,075 308 241 -1024
2022-10-01 00:44:01 GMT 39.064915 -76.813416 2,300 302 246 -1024
2022-10-01 00:43:58 GMT 39.064915 -76.813416 2,300 301 247 -960
2022-10-01 00:43:53 GMT 39.062485 -76.808228 2,350 301 247 -1024
2022-10-01 00:43:50 GMT 39.060913 -76.804810 2,350 301 247 -1024
2022-10-01 00:43:48 GMT 39.059235 -76.801147 2,400 301 248 -1024
2022-10-01 00:43:44 GMT 39.056953 -76.796265 2,750 301 248 -1024
2022-10-01 00:43:40 GMT 39.055420 -76.792969 2,500 301 249 -1024
2022-10-01 00:43:39 GMT 39.054489 -76.790955 2,525 301 249 -1024
2022-10-01 00:43:38 GMT 39.053879 -76.789597 2,550 301 249 -1024
2022-10-01 00:43:36 GMT 39.052673 -76.786987 2,675 302 249 -960
2022-10-01 00:43:31 GMT 39.049973 -76.781250 2,675 302 249 -1024
2022-10-01 00:43:30 GMT 39.048981 -76.779205 2,700 302 248 -1088
2022-10-01 00:43:27 GMT 39.044060 -76.768921 2,850 302 248 -1088
2022-10-01 00:43:22 GMT 39.044060 -76.768921 2,850 303 245 -640
2022-10-01 00:43:20 GMT 39.042290 -76.765381 2,850 303 245 -640
2022-10-01 00:43:17 GMT 39.041176 -76.763000 2,875 303 245 -128
2022-10-01 00:43:15 GMT 39.039871 -76.760437 2,875 303 245 0
2022-10-01 00:43:13 GMT 39.036118 -76.752754 2,875 303 245 0
2022-10-01 00:43:09 GMT 39.036118 -76.752754 2,875 303 245 0
2022-10-01 00:43:05 GMT 39.033737 -76.747925 2,875 303 246 0
2022-10-01 00:43:01 GMT 39.030991 -76.742310 2,875 303 246 0
2022-10-01 00:42:58 GMT 39.029434 -76.739082 2,875 303 247 0
2022-10-01 00:42:55 GMT 39.027439 -76.735107 2,875 303 247 0
2022-10-01 00:42:49 GMT 39.023251 -76.726746 2,875 303 247 -64
2022-10-01 00:42:44 GMT 39.020737 -76.721771 2,875 303 248 0
2022-10-01 00:42:43 GMT 39.020050 -76.720398 2,875 303 248 0
2022-10-01 00:42:41 GMT 39.018784 -76.717834 2,875 302 251 64
2022-10-01 00:42:40 GMT 39.018177 -76.716614 2,875 302 251 64
2022-10-01 00:42:39 GMT 39.017578 -76.715378 2,875 302 251 64
2022-10-01 00:42:35 GMT 39.015011 -76.710144 2,875 302 251 64
2022-10-01 00:42:32 GMT 39.013412 -76.706779 2,875 301 253 0
2022-10-01 00:42:29 GMT 39.011612 -76.702698 2,875 297 257 -64
2022-10-01 00:42:25 GMT 39.008728 -76.695068 2,875 294 259 128
2022-10-01 00:42:20 GMT 39.007099 -76.690308 2,875 294 262 0
2022-10-01 00:42:19 GMT 39.006592 -76.688751 2,875 294 265 0
2022-10-01 00:42:15 GMT 39.004669 -76.682961 2,875 294 265 0
2022-10-01 00:42:11 GMT 39.002563 -76.676689 2,875 294 267 0
2022-10-01 00:42:07 GMT 39.000916 -76.672035 2,875 295 270 0
2022-10-01 00:42:03 GMT 38.998810 -76.666016 2,875 295 272 0
2022-10-01 00:41:58 GMT 38.996159 -76.658691 2,875 295 272 0
2022-10-01 00:41:56 GMT 38.995193 -76.655968 2,875 295 272 0
2022-10-01 00:41:54 GMT 38.994247 -76.653137 2,875 294 273 0
2022-10-01 00:41:53 GMT 38.993408 -76.650719 2,875 294 273 -64
2022-10-01 00:41:51 GMT 38.992386 -76.647705 2,875 294 273 -64
2022-10-01 00:41:48 GMT 38.991177 -76.644043 2,875 293 274 0
2022-10-01 00:41:45 GMT 38.989735 -76.639709 2,875 294 276 64
2022-10-01 00:41:44 GMT 38.988876 -76.637161 2,875 294 276 0
2022-10-01 00:41:37 GMT 38.985359 -76.626831 2,875 295 277 0
2022-10-01 00:41:36 GMT 38.983589 -76.621887 2,875 295 277 0
2022-10-01 00:41:34 GMT 38.983589 -76.621887 2,875 295 277 0
2022-10-01 00:41:32 GMT 38.982845 -76.619751 2,875 295 277 0
2022-10-01 00:41:31 GMT 38.982052 -76.617432 2,875 294 276 0
2022-10-01 00:41:30 GMT 38.981541 -76.615906 2,875 294 276 64
2022-10-01 00:41:28 GMT 38.980797 -76.613831 2,875 294 276 64
2022-10-01 00:41:27 GMT 38.979492 -76.609993 2,875 294 277 -64
2022-10-01 00:41:25 GMT 38.979034 -76.608559 2,875 294 276 -128
2022-10-01 00:41:22 GMT 38.976288 -76.600319 2,875 294 276 -64
2022-10-01 00:41:19 GMT 38.976288 -76.600319 2,875 294 276 0
2022-10-01 00:41:18 GMT 38.975769 -76.598816 2,875 294 276 0
2022-10-01 00:41:16 GMT 38.974731 -76.595665 2,875 294 276 0
2022-10-01 00:41:14 GMT 38.971905 -76.587280 2,875 294 276 0
2022-10-01 00:41:11 GMT 38.971905 -76.587280 2,875 294 277 -64
2022-10-01 00:41:05 GMT 38.969238 -76.579361 2,900 293 277 0
2022-10-01 00:41:02 GMT 38.966995 -76.572441 2,900 292 277 64
2022-10-01 00:40:59 GMT 38.966125 -76.569511 2,875 291 277 128
2022-10-01 00:40:56 GMT 38.964409 -76.563232 2,875 287 279 128
2022-10-01 00:40:50 GMT 38.963013 -76.555847 2,875 280 282 64
2022-10-01 00:40:47 GMT 38.962418 -76.548195 2,875 272 285 0
2022-10-01 00:40:43 GMT 38.962406 -76.544312 2,875 270 286 0
2022-10-01 00:40:41 GMT 38.962872 -76.537781 2,875 258 287 0
2022-10-01 00:40:39 GMT 38.962872 -76.537781 2,875 258 287 0
2022-10-01 00:40:35 GMT 38.964111 -76.530281 2,875 237 288 -64
2022-10-01 00:40:32 GMT 38.965340 -76.525391 2,875 237 288 -64
2022-10-01 00:40:26 GMT 38.969788 -76.513985 2,875 239 287 -64
2022-10-01 00:40:23 GMT 38.970833 -76.511963 2,875 226 284 64
2022-10-01 00:40:20 GMT 38.973625 -76.507324 2,875 229 286 64
2022-10-01 00:40:16 GMT 38.977863 -76.501770 2,875 215 281 0
2022-10-01 00:40:12 GMT 38.981689 -76.497925 2,875 210 279 0
2022-10-01 00:40:08 GMT 38.985126 -76.495178 2,875 211 280 0
2022-10-01 00:40:05 GMT 38.989037 -76.492676 2,875 199 274 0
2022-10-01 00:40:02 GMT 38.993736 -76.490540 2,875 195 272 0
2022-10-01 00:39:59 GMT 38.997345 -76.489441 2,875 191 270 -64
2022-10-01 00:39:56 GMT 39.001419 -76.488785 2,875 183 265 -64
2022-10-01 00:39:53 GMT 39.004536 -76.488770 2,875 176 260 0
2022-10-01 00:39:49 GMT 39.008911 -76.489258 2,875 171 257 64
2022-10-01 00:39:45 GMT 39.014008 -76.490700 2,875 160 249 -64
2022-10-01 00:39:41 GMT 39.017807 -76.492546 2,875 145 237 128
2022-10-01 00:39:38 GMT 39.020130 -76.494141 2,875 145 237 128
2022-10-01 00:39:35 GMT 39.023533 -76.497070 2,875 138 233 64
2022-10-01 00:39:32 GMT 39.028511 -76.503601 2,850 129 227 0
2022-10-01 00:39:29 GMT 39.028511 -76.503601 2,850 105 216 64
2022-10-01 00:39:25 GMT 39.030350 -76.507652 2,875 115 219 0
2022-10-01 00:39:22 GMT 39.031677 -76.511894 2,850 103 216 64
2022-10-01 00:39:18 GMT 39.032330 -76.515564 2,850 98 215 0
2022-10-01 00:39:14 GMT 39.032654 -76.521545 2,875 86 212 -128
2022-10-01 00:39:10 GMT 39.032375 -76.525940 2,875 81 212 64
2022-10-01 00:39:07 GMT 39.031998 -76.529266 2,875 81 212 0
2022-10-01 00:39:02 GMT 39.031174 -76.536133 2,875 81 211 0
2022-10-01 00:38:58 GMT 39.030533 -76.541267 2,875 80 210 -64
2022-10-01 00:38:54 GMT 39.029297 -76.550163 2,875 79 210 64
2022-10-01 00:38:51 GMT 39.029297 -76.550163 2,875 79 211 0
2022-10-01 00:38:48 GMT 39.028931 -76.552734 2,875 79 211 -64
2022-10-01 00:38:46 GMT 39.028000 -76.559814 2,875 81 211 0
2022-10-01 00:38:43 GMT 39.028000 -76.559814 2,875 81 211 0
2022-10-01 00:38:39 GMT 39.027489 -76.564453 2,875 83 209 0
2022-10-01 00:38:36 GMT 39.027191 -76.567482 2,875 83 209 0
2022-10-01 00:38:33 GMT 39.026825 -76.572021 2,875 85 206 256
2022-10-01 00:38:29 GMT 39.026642 -76.577156 2,825 90 205 384
2022-10-01 00:38:26 GMT 39.026882 -76.580933 2,825 103 207 64
2022-10-01 00:38:22 GMT 39.027466 -76.584496 2,825 108 209 192
2022-10-01 00:38:19 GMT 39.028976 -76.589355 2,800 116 211 448
2022-10-01 00:38:16 GMT 39.029861 -76.591431 2,775 122 213 640
2022-10-01 00:38:12 GMT 39.032913 -76.596680 2,700 132 217 1088
2022-10-01 00:38:08 GMT 39.034630 -76.602409 1,250 161 233 768
2022-10-01 00:38:07 GMT 39.035648 -76.602852 1,250 161 233 768
2022-10-01 00:38:05 GMT 39.037701 -76.603722 1,250 161 233 768
2022-10-01 00:38:04 GMT 39.038719 -76.604156 1,250 161 233 768
2022-10-01 00:38:03 GMT 39.040771 -76.605042 1,250 161 233 768
2022-10-01 00:38:01 GMT 39.041790 -76.605476 1,250 161 233 768
2022-10-01 00:38:00 GMT 39.042809 -76.605919 1,250 161 233 768
2022-10-01 00:37:59 GMT 39.044861 -76.606796 1,250 161 233 768
2022-10-01 00:37:57 GMT 39.045879 -76.607239 1,250 161 233 768
2022-10-01 00:37:56 GMT 39.046909 -76.607681 1,250 161 233 768
2022-10-01 00:37:54 GMT 39.048950 -76.608559 1,250 161 233 768
2022-10-01 00:37:53 GMT 39.049980 -76.609001 1,250 161 233 768
2022-10-01 00:37:51 GMT 39.052021 -76.609879 1,250 161 233 768
2022-10-01 00:37:50 GMT 39.053051 -76.610321 1,250 161 233 768
2022-10-01 00:37:48 GMT 39.055092 -76.611198 1,250 161 233 768
2022-10-01 00:37:47 GMT 39.056122 -76.611641 1,250 161 233 608
2022-10-01 00:37:45 GMT 39.058159 -76.612518 1,250 161 233 608
2022-10-01 00:37:44 GMT 39.059181 -76.612961 1,250 161 233 608
2022-10-01 00:37:43 GMT 39.060211 -76.613403 1,250 161 233 608
2022-10-01 00:37:41 GMT 39.062248 -76.614281 1,250 161 233 608
2022-10-01 00:37:40 GMT 39.063278 -76.614723 1,250 161 233 608
2022-10-01 00:37:39 GMT 39.064301 -76.615158 1,250 161 233 608
2022-10-01 00:37:38 GMT 39.066299 -76.616058 1,250 161 236 608
2022-10-01 00:37:36 GMT 39.067360 -76.616470 1,250 161 235 608
2022-10-01 00:37:35 GMT 39.068432 -76.616920 1,250 161 232 608
2022-10-01 00:37:33 GMT 39.070480 -76.617851 1,250 162 231 608
2022-10-01 00:37:32 GMT 39.071491 -76.618263 1,250 162 231 608
2022-10-01 00:37:31 GMT 39.072510 -76.618660 1,250 162 232 608
2022-10-01 00:37:30 GMT 39.074558 -76.619492 1,250 162 231 608
2022-10-01 00:37:28 GMT 39.075588 -76.619926 1,250 162 230 608
2022-10-01 00:37:27 GMT 39.076599 -76.620354 1,250 162 230 608
2022-10-01 00:37:25 GMT 39.078629 -76.621147 1,250 162 231 608
2022-10-01 00:37:24 GMT 39.079659 -76.621559 1,250 162 229 608
2022-10-01 00:37:23 GMT 39.081699 -76.622360 1,250 162 228 608
2022-10-01 00:37:21 GMT 39.082722 -76.622772 1,250 162 227 608
2022-10-01 00:37:20 GMT 39.084709 -76.623596 1,250 162 227 608
2022-10-01 00:37:18 GMT 39.085709 -76.624001 1,250 162 227 608
2022-10-01 00:37:17 GMT 39.086720 -76.624397 1,250 162 226 608
2022-10-01 00:37:16 GMT 39.088718 -76.625183 1,250 160 225 608
2022-10-01 00:37:14 GMT 39.089741 -76.625618 1,250 160 222 608
2022-10-01 00:37:13 GMT 39.090729 -76.626053 1,250 159 220 608
2022-10-01 00:37:12 GMT 39.091702 -76.626488 1,250 159 219 608
2022-10-01 00:37:10 GMT 39.093609 -76.627403 1,250 159 218 608
2022-10-01 00:37:09 GMT 39.094570 -76.627838 1,250 159 217 608
2022-10-01 00:37:07 GMT 39.096451 -76.628708 1,250 158 219 608
2022-10-01 00:37:06 GMT 39.097408 -76.629211 1,250 159 216 608
2022-10-01 00:37:05 GMT 39.098381 -76.629639 1,250 158 214 608
2022-10-01 00:37:04 GMT 39.100231 -76.630600 1,250 159 213 608
2022-10-01 00:37:02 GMT 39.101151 -76.631058 1,250 159 213 608
2022-10-01 00:37:01 GMT 39.102081 -76.631523 1,250 159 212 608
2022-10-01 00:37:00 GMT 39.103001 -76.631943 1,250 159 212 608
2022-10-01 00:36:58 GMT 39.104881 -76.632820 1,250 159 209 608
2022-10-01 00:36:57 GMT 39.105801 -76.633240 1,250 159 209 608
2022-10-01 00:36:56 GMT 39.106689 -76.633682 1,250 159 210 608
2022-10-01 00:36:54 GMT 39.108521 -76.634583 1,250 160 209 608
2022-10-01 00:36:52 GMT 39.110340 -76.635429 1,250 160 208 608
2022-10-01 00:36:51 GMT 39.111271 -76.635880 1,250 160 205 608
2022-10-01 00:36:50 GMT 39.112160 -76.636292 1,250 160 206 608
2022-10-01 00:36:48 GMT 39.113949 -76.637093 1,250 161 206 608
2022-10-01 00:36:47 GMT 39.115780 -76.637901 1,250 161 203 3328
2022-10-01 00:36:45 GMT 39.116680 -76.638313 1,250 161 202 3328
2022-10-01 00:36:44 GMT 39.117561 -76.638680 1,250 161 203 3328
2022-10-01 00:36:43 GMT 39.119362 -76.639458 1,250 161 200 3328
2022-10-01 00:36:41 GMT 39.120258 -76.639862 1,250 161 197 3328
2022-10-01 00:36:40 GMT 39.121120 -76.640190 1,250 161 198 3328
2022-10-01 00:36:38 GMT 39.122879 -76.640953 1,250 161 195 3328
2022-10-01 00:36:37 GMT 39.123730 -76.641350 1,250 162 196 3328
2022-10-01 00:36:36 GMT 39.124619 -76.641708 1,250 161 192 3328
2022-10-01 00:36:34 GMT 39.126301 -76.642441 1,250 162 194 3328
2022-10-01 00:36:33 GMT 39.127151 -76.642776 1,250 162 194 3328
2022-10-01 00:36:31 GMT 39.128880 -76.643478 1,250 161 189 3328
2022-10-01 00:36:30 GMT 39.129711 -76.643860 1,250 162 189 3328
2022-10-01 00:36:29 GMT 39.131390 -76.644547 1,250 161 185 3328
2022-10-01 00:36:27 GMT 39.132221 -76.644867 1,250 161 185 3328
2022-10-01 00:36:26 GMT 39.133030 -76.645233 1,250 161 185 3328
2022-10-01 00:36:24 GMT 39.134670 -76.645943 1,250 161 183 3328
2022-10-01 00:36:23 GMT 39.135460 -76.646309 1,250 162 183 3328
2022-10-01 00:36:22 GMT 39.136280 -76.646637 1,250 162 182 3328
2022-10-01 00:36:20 GMT 39.137859 -76.647331 1,250 162 181 3328
2022-10-01 00:36:19 GMT 39.139481 -76.647972 1,250 161 178 3328
2022-10-01 00:36:17 GMT 39.140282 -76.648308 1,250 160 176 3328
2022-10-01 00:36:16 GMT 39.141060 -76.648621 1,250 159 175 3328
2022-10-01 00:36:14 GMT 39.142651 -76.649300 1,250 158 170 3328
2022-10-01 00:36:13 GMT 39.143391 -76.649673 1,250 158 170 3328
2022-10-01 00:36:12 GMT 39.144131 -76.650063 1,250 159 168 3328
2022-10-01 00:36:10 GMT 39.145611 -76.650780 1,250 159 168 3328
2022-10-01 00:36:09 GMT 39.146332 -76.651093 1,200 158 169 3328
2022-10-01 00:36:07 GMT 39.147671 -76.651810 1,200 158 179 3328
2022-10-01 00:36:06 GMT 39.148380 -76.652191 1,075 158 182 3328
2022-10-01 00:36:05 GMT 39.149101 -76.652557 1,075 158 184 3328
2022-10-01 00:36:03 GMT 39.150711 -76.653328 1,075 155 180 3328
2022-10-01 00:36:02 GMT 39.151451 -76.653778 1,075 155 179 3328
2022-10-01 00:36:00 GMT 39.152969 -76.654671 1,075 154 172 3328
2022-10-01 00:35:59 GMT 39.153702 -76.655090 1,000 153 170 3328
2022-10-01 00:35:58 GMT 39.154419 -76.655487 1,000 149 175 3328
2022-10-01 00:35:56 GMT 39.155800 -76.656357 900 149 174 3328
2022-10-01 00:35:55 GMT 39.156521 -76.656929 900 151 158 3328
2022-10-01 00:35:54 GMT 39.157108 -76.657356 900 151 164 3328
2022-10-01 00:35:53 GMT 39.158489 -76.658318 525 150 159 3328
2022-10-01 00:35:51 GMT 39.159100 -76.658768 525 150 163 3328
2022-10-01 00:35:50 GMT 39.159752 -76.659248 525 149 164 3328
2022-10-01 00:35:48 GMT 39.161072 -76.660248 525 149 165 3328
2022-10-01 00:35:47 GMT 39.161751 -76.660767 525 148 163 800
2022-10-01 00:35:46 GMT 39.162369 -76.661209 525 146 169 800
2022-10-01 00:35:44 GMT 39.163712 -76.662292 425 146 170 800
2022-10-01 00:35:43 GMT 39.164371 -76.662827 400 145 168 800
2022-10-01 00:35:42 GMT 39.165112 -76.663391 275 144 160 800
2022-10-01 00:35:40 GMT 39.166351 -76.664497 175 144 166 800
2022-10-01 00:35:39 GMT 39.166962 -76.665092 175 144 168 800
2022-10-01 00:35:38 GMT 39.167599 -76.665627 25 143 171 800
2022-10-01 00:35:37 GMT 39.168190 -76.666252 25 145 174 800
2022-10-01 00:35:35 GMT 39.169479 -76.667381 25 144 174 800
2022-10-01 00:35:34 GMT 39.170139 -76.667992 25 144 171 800
2022-10-01 00:35:33 GMT 39.170761 -76.668579 25 145 171 800
2022-10-01 00:35:31 GMT 39.172039 -76.669708 0 144 166 -416
2022-10-01 00:35:30 GMT 39.172668 -76.670273 0 144 163 -416
2022-10-01 00:35:29 GMT 39.173889 -76.671371 25 143 156 -416
2022-10-01 00:35:27 GMT 39.174480 -76.671913 25 143 153 -160
2022-10-01 00:35:26 GMT 39.175041 -76.672462 50 143 149 -160
2022-10-01 00:35:25 GMT 39.176151 -76.673508 25 144 140 -160
2022-10-01 00:35:23 GMT 39.176689 -76.673981 25 143 136 -160
2022-10-01 00:35:22 GMT 39.177189 -76.674469 25 144 132 -160
2022-10-01 00:35:20 GMT 39.178188 -76.675407 25 144 123 -160
2022-10-01 00:35:19 GMT 39.178619 -76.675842 25 145 121 -160
2022-10-01 00:35:18 GMT 39.179531 -76.676689 25 146 112
2022-10-01 00:35:16 GMT 39.179958 -76.677040 25 145 110
2022-10-01 00:35:14 GMT 39.180790 -76.677773 0 145 101
2022-10-01 00:35:12 GMT 39.181580 -76.678497 0 145 87
2022-10-01 00:35:11 GMT 39.181911 -76.678772 0 144 83
2022-10-01 00:35:10 GMT 39.182220 -76.679031 0 143 83
2022-10-01 00:35:08 GMT 39.182789 -76.679543 0 142 78
2022-10-01 00:35:07 GMT 39.183079 -76.679810 0 141 72
2022-10-01 00:35:06 GMT 39.183338 -76.680107 0 143 65
2022-10-01 00:35:05 GMT 39.183880 -76.680588 0 141 47
2022-10-01 00:35:04 GMT 39.184078 -76.680817 0 143 39
2022-10-01 00:35:02 GMT 39.184261 -76.680962 0 142 33
2022-10-01 00:35:01 GMT 39.184460 -76.681198 0 148 21
2022-10-01 00:35:00 GMT 39.184589 -76.681297 0 147 16
2022-10-01 00:34:58 GMT 39.184799 -76.681480 0 150 8
2022-10-01 00:34:57 GMT 39.184879 -76.681549 0 149 5
2022-10-01 00:34:55 GMT 39.185009 -76.681633 0 149 3
2022-10-01 00:34:53 GMT 39.185051 -76.681664 0 149 3
2022-10-01 00:34:51 GMT 39.185120 -76.681679 0 149 1
2022-10-01 00:34:50 GMT 39.185108 -76.681679 0 149 0
2022-10-01 00:34:47 GMT 39.185108 -76.681679 0 149 0
2022-10-01 00:34:46 GMT 39.185139 -76.681686 0 149 1
2022-10-01 00:34:44 GMT 39.185131 -76.681679 0 149 0
2022-10-01 00:34:42 GMT 39.185120 -76.681679 0 149 1
2022-10-01 00:34:40 GMT 39.185108 -76.681679 0 149 1
2022-10-01 00:34:39 GMT 39.185070 -76.681664 0 149 2
2022-10-01 00:34:38 GMT 39.185070 -76.681679 0 149 3
2022-10-01 00:34:36 GMT 39.185131 -76.681686 0 149 2
2022-10-01 00:34:35 GMT 39.185131 -76.681709 0 149 1
2022-10-01 00:34:33 GMT 39.185108 -76.681702 0 149 2
2022-10-01 00:34:32 GMT 39.185081 -76.681679 0 149 2
2022-10-01 00:34:31 GMT 39.185131 -76.681686 0 149 1
2022-10-01 00:34:30 GMT 39.185059 -76.681664 0 149 2
2022-10-01 00:34:28 GMT 39.184978 -76.681633 0 149 3
2022-10-01 00:34:27 GMT 39.185070 -76.681671 0 149 3
2022-10-01 00:34:26 GMT 39.185131 -76.681686 0 149 1
2022-10-01 00:34:25 GMT 39.185108 -76.681686 0 149 1
2022-10-01 00:34:23 GMT 39.185120 -76.681671 0 149 1
2022-10-01 00:34:21 GMT 39.185139 -76.681702 0 149 0
2022-10-01 00:34:20 GMT 39.185139 -76.681709 0 149 0
2022-10-01 00:34:19 GMT 39.185120 -76.681686 0 149 0
2022-10-01 00:34:18 GMT 39.185120 -76.681709 0 149 0
2022-10-01 00:34:16 GMT 39.185169 -76.681686 0 149 1
2022-10-01 00:34:15 GMT 39.185162 -76.681686 0 149 1
2022-10-01 00:34:13 GMT 39.185150 -76.681702 0 149 1
2022-10-01 00:34:12 GMT 39.185131 -76.681686 0 149 1
2022-10-01 00:34:11 GMT 39.185150 -76.681709 0 149 1
2022-10-01 00:34:09 GMT 39.185108 -76.681679 0 149 0
2022-10-01 00:34:08 GMT 39.185101 -76.681679 0 149 0
2022-10-01 00:34:07 GMT 39.185120 -76.681702 0 149 1
2022-10-01 00:34:05 GMT 39.185081 -76.681686 0 149 0
2022-10-01 00:34:04 GMT 39.185059 -76.681679 0 149 1
2022-10-01 00:34:03 GMT 39.185009 -76.681648 0 149 1
2022-10-01 00:34:02 GMT 39.185001 -76.681664 0 149 1
2022-10-01 00:34:00 GMT 39.185001 -76.681664 0 149 1
2022-10-01 00:33:59 GMT 39.185001 -76.681664 0 149 0
2022-10-01 00:33:56 GMT 39.185001 -76.681664 0 149 0
2022-10-01 00:33:54 GMT 39.185009 -76.681664 0 149 0
2022-10-01 00:33:53 GMT 39.185009 -76.681648 0 149 0
2022-10-01 00:33:52 GMT 39.185009 -76.681664 0 149 0
2022-10-01 00:33:49 GMT 39.185009 -76.681648 0 149 0
2022-10-01 00:33:46 GMT 39.185020 -76.681664 0 149 0
2022-10-01 00:33:45 GMT 39.185009 -76.681648 0 149 0
2022-10-01 00:33:43 GMT 39.185001 -76.681648 0 150 1
2022-10-01 00:33:42 GMT 39.185020 -76.681664 0 150 0
2022-10-01 00:33:41 GMT 39.185009 -76.681664 0 150 0
2022-10-01 00:33:38 GMT 39.185009 -76.681648 0 150 0
2022-10-01 00:33:36 GMT 39.185020 -76.681648 0 150 0
2022-10-01 00:33:35 GMT 39.185009 -76.681633 0 150 1
2022-10-01 00:33:34 GMT 39.185009 -76.681633 0 150 3
2022-10-01 00:33:32 GMT 39.184990 -76.681618 0 150 5
2022-10-01 00:33:31 GMT 39.185001 -76.681633 0 150 5
2022-10-01 00:33:29 GMT 39.185009 -76.681686 0 150 6
2022-10-01 00:33:28 GMT 39.185040 -76.681732 0 150 4
2022-10-01 00:33:27 GMT 39.185040 -76.681763 0 151 4
2022-10-01 00:33:26 GMT 39.185051 -76.681793 0 151 4
2022-10-01 00:33:24 GMT 39.185070 -76.681839 0 153 5
2022-10-01 00:33:23 GMT 39.185101 -76.681862 0 154 4
2022-10-01 00:33:22 GMT 39.185139 -76.681908 0 161 4
2022-10-01 00:33:20 GMT 39.185162 -76.681923 0 166 5
2022-10-01 00:33:19 GMT 39.185211 -76.681931 0 186 4
2022-10-01 00:33:17 GMT 39.185219 -76.681938 0 204 5
2022-10-01 00:33:16 GMT 39.185249 -76.681900 0 233 6
2022-10-01 00:33:14 GMT 39.185268 -76.681870 0 232 6
2022-10-01 00:33:13 GMT 39.185291 -76.681839 0 230 6
2022-10-01 00:33:12 GMT 39.185310 -76.681778 0 227 7
2022-10-01 00:33:10 GMT 39.185360 -76.681732 0 230 7
2022-10-01 00:33:08 GMT 39.185379 -76.681686 0 230 7
2022-10-01 00:33:07 GMT 39.185410 -76.681664 0 232 6
2022-10-01 00:33:06 GMT 39.185429 -76.681633 0 232 6
2022-10-01 00:33:05 GMT 39.185471 -76.681580 0 234 7
2022-10-01 00:33:02 GMT 39.185509 -76.681511 0 239 6
2022-10-01 00:33:01 GMT 39.185520 -76.681488 0 247 7
2022-10-01 00:33:00 GMT 39.185539 -76.681458 0 261 6
2022-10-01 00:32:58 GMT 39.185581 -76.681396 0 284 5
2022-10-01 00:32:57 GMT 39.185589 -76.681374 0 284 5
2022-10-01 00:32:55 GMT 39.185631 -76.681328 0 284 4
2022-10-01 00:32:52 GMT 39.185680 -76.681236 0 284 4
2022-10-01 00:32:51 GMT 39.185680 -76.681213 0 284 4
2022-10-01 00:32:50 GMT 39.185692 -76.681183 0 284 3
2022-10-01 00:32:48 GMT 39.185711 -76.681107 0 284 2
2022-10-01 00:32:46 GMT 39.185719 -76.681091 0 284 2
2022-10-01 00:32:45 GMT 39.185719 -76.681068 0 284 2
2022-10-01 00:32:44 GMT 39.185719 -76.681000 0 284 2
2022-10-01 00:32:42 GMT 39.185719 -76.680862 0 284 1
2022-10-01 00:32:41 GMT 39.185711 -76.680817 0 284 1
2022-10-01 00:32:39 GMT 39.185699 -76.680794 0 284 0
2022-10-01 00:32:38 GMT 39.185699 -76.680748 0 284 0
2022-10-01 00:32:37 GMT 39.185711 -76.680779 0 284 1
2022-10-01 00:32:35 GMT 39.185719 -76.680840 0 284 0
2022-10-01 00:32:30 GMT 39.185719 -76.680893 0 284 1
2022-10-01 00:32:21 GMT 39.185719 -76.680901 0 284 0
2022-10-01 00:32:20 GMT 39.185719 -76.680893 0 284 0
2022-10-01 00:32:19 GMT 39.185719 -76.680878 0 284 1
2022-10-01 00:32:11 GMT 39.185719 -76.680901 0 285 0
2022-10-01 00:32:10 GMT 39.185730 -76.680878 0 285 0
2022-10-01 00:32:08 GMT 39.185741 -76.680878 0 285 0
2022-10-01 00:32:06 GMT 39.185741 -76.680870 0 285 2
2022-10-01 00:32:05 GMT 39.185741 -76.680862 0 285 2
2022-10-01 00:32:04 GMT 39.185741 -76.680847 0 285 1
2022-10-01 00:32:02 GMT 39.185730 -76.680832 0 285 2
2022-10-01 00:32:01 GMT 39.185741 -76.680832 0 286 3
2022-10-01 00:31:59 GMT 39.185741 -76.680817 0 287 3
2022-10-01 00:31:58 GMT 39.185741 -76.680794 0 289 4
2022-10-01 00:31:57 GMT 39.185749 -76.680771 0 291 4
2022-10-01 00:31:56 GMT 39.185749 -76.680748 0 295 4
2022-10-01 00:31:54 GMT 39.185760 -76.680710 0 308 6
2022-10-01 00:31:53 GMT 39.185749 -76.680687 0 319 6
2022-10-01 00:31:51 GMT 39.185719 -76.680634 0 320 6
2022-10-01 00:31:50 GMT 39.185711 -76.680588 0 313 6
2022-10-01 00:31:48 GMT 39.185631 -76.680550 0 300 4
2022-10-01 00:31:47 GMT 39.185600 -76.680542 0 305 3
2022-10-01 00:31:46 GMT 39.185650 -76.680496 0 339 5
2022-10-01 00:31:44 GMT 39.185619 -76.680458 0 338 6
2022-10-01 00:31:43 GMT 39.185589 -76.680458 0 332 5
2022-10-01 00:31:41 GMT 39.185532 -76.680450 0 318 5
2022-10-01 00:31:40 GMT 39.185539 -76.680412 0 338 6
2022-10-01 00:31:39 GMT 39.185490 -76.680397 0 331 5
2022-10-01 00:31:37 GMT 39.185410 -76.680389 0 329 3
2022-10-01 00:31:36 GMT 39.185478 -76.680351 0 329 4
2022-10-01 00:31:35 GMT 39.185471 -76.680351 0 329 5
2022-10-01 00:31:33 GMT 39.185421 -76.680313 0 329 4
2022-10-01 00:31:32 GMT 39.185421 -76.680298 0 329 5
2022-10-01 00:31:31 GMT 39.185398 -76.680267 0 329 4
2022-10-01 00:31:30 GMT 39.185360 -76.680229 0 329 2
2022-10-01 00:31:28 GMT 39.185322 -76.680191 0 328 2
2022-10-01 00:31:27 GMT 39.185291 -76.680161 0 327 2
2022-10-01 00:31:25 GMT 39.185169 -76.680031 0 323 2
2022-10-01 00:31:24 GMT 39.185230 -76.680069 0 322 3
2022-10-01 00:31:22 GMT 39.185219 -76.680061 0 320 3
2022-10-01 00:31:20 GMT 39.185162 -76.680031 0 314 2
2022-10-01 00:31:19 GMT 39.185188 -76.680069 0 312 2
2022-10-01 00:31:18 GMT 39.185211 -76.680122 0 309 1
2022-10-01 00:31:15 GMT 39.185211 -76.680130 0 299 1
2022-10-01 00:31:13 GMT 39.185131 -76.680290 0 278 6
2022-10-01 00:31:12 GMT 39.185139 -76.680283 0 270 6
2022-10-01 00:31:11 GMT 39.185162 -76.680222 0 268 6
2022-10-01 00:31:09 GMT 39.185162 -76.680191 0 321 6
2022-10-01 00:31:08 GMT 39.185169 -76.680161 0 312 3
2022-10-01 00:31:07 GMT 39.185211 -76.680168 0 329 3
2022-10-01 00:31:05 GMT 39.185249 -76.680130 0 329 5
2022-10-01 00:31:04 GMT 39.185139 -76.680061 0 329 5
2022-10-01 00:31:03 GMT 39.185242 -76.680092 0 329 4
2022-10-01 00:31:01 GMT 39.185211 -76.680130 0 329 2
2022-10-01 00:31:00 GMT 39.185188 -76.680130 0 329 1
2022-10-01 00:30:59 GMT 39.185261 -76.680122 0 329 2
2022-10-01 00:30:57 GMT 39.185249 -76.680122 0 329 2
2022-10-01 00:30:56 GMT 39.185249 -76.680130 0 329 2
2022-10-01 00:30:54 GMT 39.185219 -76.680138 0 329 1
2022-10-01 00:30:52 GMT 39.185211 -76.680153 0 329 1
2022-10-01 00:30:51 GMT 39.185242 -76.680138 0 329 3
2022-10-01 00:30:49 GMT 39.185219 -76.680153 0 329 3
2022-10-01 00:30:48 GMT 39.185188 -76.680153 0 329 3
2022-10-01 00:30:46 GMT 39.185169 -76.680130 0 329 3
2022-10-01 00:30:45 GMT 39.185169 -76.680077 0 329 0
2022-10-01 00:30:44 GMT 39.185150 -76.680069 0 329 1
2022-10-01 00:30:42 GMT 39.185200 -76.680092 0 329 4
2022-10-01 00:30:41 GMT 39.185181 -76.680069 0 328 5
2022-10-01 00:30:40 GMT 39.185169 -76.680054 0 327 5
2022-10-01 00:30:39 GMT 39.185131 -76.680038 0 323 6
2022-10-01 00:30:37 GMT 39.185120 -76.680023 0 323 7
2022-10-01 00:30:36 GMT 39.185059 -76.679993 0 316 7
2022-10-01 00:30:34 GMT 39.185040 -76.679977 0 313 8
2022-10-01 00:30:33 GMT 39.184990 -76.679916 0 323 10
2022-10-01 00:30:31 GMT 39.184952 -76.679878 0 334 9
2022-10-01 00:30:30 GMT 39.184959 -76.679779 0 338 9
2022-10-01 00:30:28 GMT 39.184849 -76.679771 0 320 7
2022-10-01 00:30:26 GMT 39.184830 -76.679787 0 313 10
2022-10-01 00:30:25 GMT 39.184780 -76.679749 0 306 8
2022-10-01 00:30:23 GMT 39.184689 -76.679680 0 292 5
2022-10-01 00:30:22 GMT 39.184681 -76.679611 0 321 3
2022-10-01 00:30:21 GMT 39.184738 -76.679626 0 329 10
2022-10-01 00:30:20 GMT 39.184662 -76.679543 0 336 10
2022-10-01 00:30:18 GMT 39.184639 -76.679543 0 335 12
2022-10-01 00:30:17 GMT 39.184540 -76.679497 0 326 13
2022-10-01 00:30:15 GMT 39.184490 -76.679459 0 321 13
2022-10-01 00:30:14 GMT 39.184460 -76.679398 0 330 13
2022-10-01 00:30:12 GMT 39.184349 -76.679337 0 319 14
2022-10-01 00:30:11 GMT 39.184319 -76.679291 0 325 15
2022-10-01 00:30:10 GMT 39.184261 -76.679230 0 325 15
2022-10-01 00:30:08 GMT 39.184170 -76.679169 0 320 20
2022-10-01 00:30:07 GMT 39.184071 -76.679070 0 317 17
2022-10-01 00:30:05 GMT 39.183971 -76.678932 0 329 18
2022-10-01 00:30:04 GMT 39.183891 -76.678871 0 331 17
2022-10-01 00:30:03 GMT 39.183849 -76.678879 0 321 21
2022-10-01 00:30:00 GMT 39.183651 -76.678642 0 327 22
2022-10-01 00:29:58 GMT 39.183392 -76.678383 0 333 19
2022-10-01 00:29:56 GMT 39.183281 -76.678329 0 326 16
2022-10-01 00:29:55 GMT 39.183159 -76.678261 0 319 22
2022-10-01 00:29:52 GMT 39.182999 -76.678040 0 334 18
2022-10-01 00:29:50 GMT 39.182850 -76.677933 0 327 17
2022-10-01 00:29:49 GMT 39.182781 -76.677887 0 324 23
2022-10-01 00:29:47 GMT 39.182690 -76.677780 0 326 23
2022-10-01 00:29:46 GMT 39.182598 -76.677689 0 332 21
2022-10-01 00:29:45 GMT 39.182499 -76.677643 0 326 20
2022-10-01 00:29:44 GMT 39.182430 -76.677597 0 319 21
2022-10-01 00:29:43 GMT 39.182362 -76.677513 0 321 21
2022-10-01 00:29:41 GMT 39.182190 -76.677338 0 330 18
2022-10-01 00:29:40 GMT 39.182121 -76.677307 0 319 20
2022-10-01 00:29:39 GMT 39.182060 -76.677231 0 320 21
2022-10-01 00:29:37 GMT 39.181889 -76.677071 0 318 20
2022-10-01 00:29:36 GMT 39.181831 -76.676987 0 320 21
2022-10-01 00:29:34 GMT 39.181671 -76.676819 0 326 22
2022-10-01 00:29:33 GMT 39.181591 -76.676758 0 322 23
2022-10-01 00:29:31 GMT 39.181438 -76.676620 0 324 21
2022-10-01 00:29:29 GMT 39.181278 -76.676483 0 328 23
2022-10-01 00:29:28 GMT 39.181171 -76.676430 0 319 21
2022-10-01 00:29:27 GMT 39.181099 -76.676331 0 325 20
2022-10-01 00:29:25 GMT 39.180931 -76.676117 0 332 21
2022-10-01 00:29:23 GMT 39.180801 -76.676117 0 316 22
2022-10-01 00:29:21 GMT 39.180630 -76.675903 0 319 17
2022-10-01 00:29:20 GMT 39.180592 -76.675827 0 327 21
2022-10-01 00:29:19 GMT 39.180489 -76.675758 0 326 18
2022-10-01 00:29:18 GMT 39.180359 -76.675667 0 319 20
2022-10-01 00:29:16 GMT 39.180302 -76.675568 0 331 23
2022-10-01 00:29:15 GMT 39.180191 -76.675522 0 327 19
2022-10-01 00:29:13 GMT 39.180050 -76.675377 0 328 20
2022-10-01 00:29:12 GMT 39.179958 -76.675369 0 317 23
2022-10-01 00:29:10 GMT 39.179821 -76.675148 0 333 21
2022-10-01 00:29:09 GMT 39.179729 -76.675110 0 325 23
2022-10-01 00:29:08 GMT 39.179569 -76.674973 0 320 24
2022-10-01 00:29:06 GMT 39.179489 -76.674881 0 323 25
2022-10-01 00:29:05 GMT 39.179310 -76.674698 0 325 20
2022-10-01 00:29:03 GMT 39.179199 -76.674667 0 305 23
2022-10-01 00:29:02 GMT 39.179119 -76.674400 0 343 24
2022-10-01 00:29:00 GMT 39.178970 -76.674408 0 317 21
2022-10-01 00:28:59 GMT 39.178879 -76.674347 0 313 22
2022-10-01 00:28:58 GMT 39.178810 -76.674232 0 318 20
2022-10-01 00:28:56 GMT 39.178680 -76.674072 0 324 23
2022-10-01 00:28:55 GMT 39.178581 -76.674011 0 317 23
2022-10-01 00:28:53 GMT 39.178398 -76.673820 0 316 16
2022-10-01 00:28:52 GMT 39.178360 -76.673782 0 320 21
2022-10-01 00:28:51 GMT 39.178188 -76.673607 0 324 22
2022-10-01 00:28:49 GMT 39.178108 -76.673553 0 324 23
2022-10-01 00:28:48 GMT 39.177940 -76.673370 0 325 23
2022-10-01 00:28:46 GMT 39.177849 -76.673302 0 326 23
2022-10-01 00:28:45 GMT 39.177750 -76.673264 0 314 23
2022-10-01 00:28:43 GMT 39.177570 -76.673103 0 319 23
2022-10-01 00:28:42 GMT 39.177471 -76.673050 0 305 24
2022-10-01 00:28:41 GMT 39.177422 -76.672890 0 328 21
2022-10-01 00:28:40 GMT 39.177269 -76.672791 0 320 23
2022-10-01 00:28:38 GMT 39.177170 -76.672707 0 314 23
2022-10-01 00:28:37 GMT 39.177010 -76.672501 0 324 19
2022-10-01 00:28:35 GMT 39.176941 -76.672462 0 321 23
2022-10-01 00:28:33 GMT 39.176750 -76.672279 0 325 16
2022-10-01 00:28:32 GMT 39.176628 -76.672173 0 324 19
2022-10-01 00:28:30 GMT 39.176552 -76.672096 0 321 22
2022-10-01 00:28:29 GMT 39.176449 -76.672028 0 308 18
2022-10-01 00:28:27 GMT 39.176338 -76.671852 0 318 18
2022-10-01 00:28:26 GMT 39.176300 -76.671738 0 340 16
2022-10-01 00:28:25 GMT 39.176140 -76.671738 0 319 20
2022-10-01 00:28:23 GMT 39.176079 -76.671661 0 320 23
2022-10-01 00:28:21 GMT 39.175900 -76.671501 0 320 18
2022-10-01 00:28:20 GMT 39.175831 -76.671440 0 315 18
2022-10-01 00:28:19 GMT 39.175770 -76.671341 0 324 15
2022-10-01 00:28:17 GMT 39.175640 -76.671257 0 313 17
2022-10-01 00:28:16 GMT 39.175598 -76.671181 0 323 20
2022-10-01 00:28:14 GMT 39.175442 -76.671043 0 315 19
2022-10-01 00:28:13 GMT 39.175388 -76.670937 0 326 17
2022-10-01 00:28:12 GMT 39.175301 -76.670891 0 318 16
2022-10-01 00:28:11 GMT 39.175190 -76.670753 0 306 17
2022-10-01 00:28:09 GMT 39.175152 -76.670708 0 300 20
2022-10-01 00:28:08 GMT 39.175091 -76.670601 0 295 17
2022-10-01 00:28:07 GMT 39.175018 -76.670418 0 305 14
2022-10-01 00:28:05 GMT 39.174969 -76.670372 0 296 16
2022-10-01 00:28:04 GMT 39.174919 -76.670311 0 288 19
2022-10-01 00:28:02 GMT 39.174881 -76.670128 0 285 19
2022-10-01 00:28:01 GMT 39.174870 -76.670013 0 299 18
2022-10-01 00:28:00 GMT 39.174801 -76.669922 0 278 17
2022-10-01 00:27:58 GMT 39.174770 -76.669746 0 276 13
2022-10-01 00:27:57 GMT 39.174782 -76.669701 0 290 17
2022-10-01 00:27:55 GMT 39.174709 -76.669487 0 269 15
2022-10-01 00:27:54 GMT 39.174709 -76.669350 0 275 9
2022-10-01 00:27:53 GMT 39.174740 -76.669342 0 295 14
2022-10-01 00:27:51 GMT 39.174690 -76.669182 0 276 12
2022-10-01 00:27:50 GMT 39.174671 -76.669113 0 264 12
2022-10-01 00:27:49 GMT 39.174679 -76.668968 0 269 11
2022-10-01 00:27:47 GMT 39.174671 -76.668907 0 264 10
2022-10-01 00:27:46 GMT 39.174660 -76.668869 0 249 13
2022-10-01 00:27:45 GMT 39.174660 -76.668762 0 240 14
2022-10-01 00:27:43 GMT 39.174709 -76.668701 0 243 14
2022-10-01 00:27:41 GMT 39.174740 -76.668510 0 204 9
2022-10-01 00:27:40 GMT 39.174782 -76.668503 0 207 9
2022-10-01 00:27:39 GMT 39.174831 -76.668488 0 211 8
2022-10-01 00:27:37 GMT 39.174919 -76.668404 0 187 7
2022-10-01 00:27:36 GMT 39.174931 -76.668419 0 198 9
2022-10-01 00:27:35 GMT 39.174961 -76.668388 0 195 10
2022-10-01 00:27:33 GMT 39.175079 -76.668373 0 225 7
2022-10-01 00:27:32 GMT 39.175091 -76.668312 0 211 8
2022-10-01 00:27:30 GMT 39.175171 -76.668282 0 229 9
2022-10-01 00:27:29 GMT 39.175209 -76.668266 0 243 11
2022-10-01 00:27:27 GMT 39.175270 -76.668129 0 252 8
2022-10-01 00:27:26 GMT 39.175301 -76.668114 0 264 8
2022-10-01 00:27:25 GMT 39.175289 -76.668091 0 262 12
2022-10-01 00:27:23 GMT 39.175282 -76.667953 0 261 14
2022-10-01 00:27:22 GMT 39.175301 -76.667847 0 267 10
2022-10-01 00:27:21 GMT 39.175331 -76.667778 0 281 9
2022-10-01 00:27:20 GMT 39.175301 -76.667679 0 274 11
2022-10-01 00:27:18 GMT 39.175301 -76.667633 0 274 12
2022-10-01 00:27:17 GMT 39.175282 -76.667580 0 261 14
2022-10-01 00:27:15 GMT 39.175301 -76.667389 0 277 10
2022-10-01 00:27:14 GMT 39.175301 -76.667328 0 274 13
2022-10-01 00:27:13 GMT 39.175289 -76.667259 0 274 14
2022-10-01 00:27:11 GMT 39.175289 -76.667084 0 280 13
2022-10-01 00:27:10 GMT 39.175270 -76.667030 0 275 16
2022-10-01 00:27:08 GMT 39.175251 -76.666786 0 278 7
2022-10-01 00:27:07 GMT 39.175228 -76.666779 0 269 10
2022-10-01 00:27:05 GMT 39.175270 -76.666588 0 281 12
2022-10-01 00:27:03 GMT 39.175228 -76.666519 0 274 13
2022-10-01 00:27:02 GMT 39.175240 -76.666420 0 268 11
2022-10-01 00:27:00 GMT 39.175240 -76.666298 0 281 11
2022-10-01 00:26:59 GMT 39.175240 -76.666252 0 280 11
2022-10-01 00:26:57 GMT 39.175209 -76.666122 0 265 11
2022-10-01 00:26:56 GMT 39.175179 -76.666092 0 259 14
2022-10-01 00:26:54 GMT 39.175209 -76.665909 0 255 12
2022-10-01 00:26:53 GMT 39.175159 -76.665840 0 225 12
2022-10-01 00:26:52 GMT 39.175240 -76.665779 0 240 8
2022-10-01 00:26:51 GMT 39.175251 -76.665718 0 231 7
2022-10-01 00:26:49 GMT 39.175282 -76.665649 0 225 12
2022-10-01 00:26:48 GMT 39.175339 -76.665588 0 211 7
2022-10-01 00:26:46 GMT 39.175381 -76.665550 0 207 12
2022-10-01 00:26:45 GMT 39.175430 -76.665512 0 217 13
2022-10-01 00:26:44 GMT 39.175480 -76.665443 0 208 11
2022-10-01 00:26:42 GMT 39.175560 -76.665367 0 212 13
2022-10-01 00:26:41 GMT 39.175591 -76.665337 0 210 17
2022-10-01 00:26:39 GMT 39.175751 -76.665161 0 193 10
2022-10-01 00:26:38 GMT 39.175781 -76.665176 0 215 13
2022-10-01 00:26:37 GMT 39.175838 -76.665154 0 215 13
2022-10-01 00:26:35 GMT 39.175919 -76.665039 0 204 12
2022-10-01 00:26:34 GMT 39.175961 -76.665031 0 210 16
2022-10-01 00:26:33 GMT 39.176041 -76.664963 0 215 13
2022-10-01 00:26:32 GMT 39.176079 -76.664948 0 222 15
2022-10-01 00:26:30 GMT 39.176170 -76.664841 0 213 15
2022-10-01 00:26:28 GMT 39.176300 -76.664772 0 222 13
2022-10-01 00:26:27 GMT 39.176331 -76.664703 0 212 10
2022-10-01 00:26:26 GMT 39.176361 -76.664688 0 210 13
2022-10-01 00:26:24 GMT 39.176460 -76.664574 0 197 8
2022-10-01 00:26:23 GMT 39.176460 -76.664558 0 195 14
2022-10-01 00:26:22 GMT 39.176601 -76.664520 0 226 9
2022-10-01 00:26:20 GMT 39.176620 -76.664452 0 212 9
2022-10-01 00:26:19 GMT 39.176670 -76.664459 0 232 9
2022-10-01 00:26:18 GMT 39.176731 -76.664391 0 217 11
2022-10-01 00:26:16 GMT 39.176762 -76.664291 0 200 7
2022-10-01 00:26:15 GMT 39.176800 -76.664307 0 207 7
2022-10-01 00:26:14 GMT 39.176868 -76.664307 0 228 11
2022-10-01 00:26:12 GMT 39.176899 -76.664261 0 224 9
2022-10-01 00:26:11 GMT 39.176929 -76.664238 0 215 9
2022-10-01 00:26:09 GMT 39.177010 -76.664146 0 190 6
2022-10-01 00:26:08 GMT 39.177029 -76.664124 0 165 6
2022-10-01 00:26:07 GMT 39.177078 -76.664101 0 143 7
2022-10-01 00:26:05 GMT 39.177109 -76.664108 0 144 8
2022-10-01 00:26:02 GMT 39.177219 -76.664200 0 124 10
2022-10-01 00:26:01 GMT 39.177219 -76.664230 0 132 14
2022-10-01 00:26:00 GMT 39.177269 -76.664299 0 124 12
2022-10-01 00:25:58 GMT 39.177341 -76.664421 0 111 12
2022-10-01 00:25:57 GMT 39.177380 -76.664490 0 104 11
2022-10-01 00:25:56 GMT 39.177410 -76.664627 0 120 9
2022-10-01 00:25:54 GMT 39.177422 -76.664680 0 124 10
2022-10-01 00:25:53 GMT 39.177471 -76.664780 0 126 9
2022-10-01 00:25:51 GMT 39.177490 -76.664833 0 127 10
2022-10-01 00:25:50 GMT 39.177509 -76.664879 0 128 10
2022-10-01 00:25:48 GMT 39.177551 -76.664978 0 131 10
2022-10-01 00:25:47 GMT 39.177582 -76.665031 0 133 10
2022-10-01 00:25:45 GMT 39.177631 -76.665131 0 136 10
2022-10-01 00:25:44 GMT 39.177650 -76.665169 0 136 10
2022-10-01 00:25:43 GMT 39.177700 -76.665207 0 134 9

Making use of Plane Finder data

You are free to use the raw flight data, aircraft information and images provided in this report for your own purposes provided the data is correctly attributed to Plane Finder. We ask that you please credit Plane Finder and link to planefinder.net in close proximity to the content.

Optionally one of the following logos (no smaller then 150x24px) can be used and must link to planefinder.net

Embedding the Plane Finder map

You are welcome to embed the Plane Finder playback map on your website to offer visitors a more interactive experience. We suggest using the following HTML code:

<iframe src="//planefinder.net/data/report/NK2077-N662NK-7700-squawk-2022-10-01/map" width="800" height="600" seamless="seamless"></iframe>

Where our data comes from

Plane Finder has a global network of data feeds and antenna radars that receive data broadcast directly from aircraft. The primary technologies used are ADS-B and MLAT. We also show feeds from the FAA and a FLARM glider feed.

Click here to find out more about the Plane Finder network.

How we collect our data